createdAt,value
2019-02-16T00:00:00.438Z,8.47
2019-02-16T00:01:00.241Z,8.46
2019-02-16T00:02:00.226Z,8.49
2019-02-16T00:03:00.220Z,8.47
2019-02-16T00:04:00.224Z,8.52
2019-02-16T00:05:00.303Z,8.52
2019-02-16T00:06:00.206Z,8.38
2019-02-16T00:07:00.174Z,8.41
2019-02-16T00:08:00.162Z,8.37
2019-02-16T00:09:00.177Z,8.44
2019-02-16T00:10:00.311Z,8.46
2019-02-16T00:11:00.130Z,8.52
2019-02-16T00:12:00.127Z,8.41
2019-02-16T00:13:00.112Z,8.47
2019-02-16T00:14:00.104Z,8.42
2019-02-16T00:15:00.140Z,8.35
2019-02-16T00:16:00.079Z,8.42
2019-02-16T00:17:00.070Z,8.34
2019-02-16T00:18:00.069Z,8.38
2019-02-16T00:19:00.050Z,8.35
2019-02-16T00:20:00.059Z,8.32
2019-02-16T00:21:04.013Z,8.34
2019-02-16T00:22:00.017Z,8.34
2019-02-16T00:23:00.002Z,8.29
2019-02-16T00:23:59.996Z,8.20
2019-02-16T00:25:00.005Z,8.28
2019-02-16T00:25:59.971Z,8.31
2019-02-16T00:26:59.961Z,8.16
2019-02-16T00:27:59.952Z,8.24
2019-02-16T00:28:59.940Z,8.21
2019-02-16T00:29:59.937Z,8.20
2019-02-16T00:30:59.939Z,8.17
2019-02-16T00:31:59.909Z,8.19
2019-02-16T00:32:59.903Z,8.21
2019-02-16T00:33:59.885Z,8.20
2019-02-16T00:34:59.874Z,8.17
2019-02-16T00:35:59.917Z,8.10
2019-02-16T00:36:59.854Z,8.09
2019-02-16T00:37:59.845Z,8.13
2019-02-16T00:38:59.834Z,8.10
2019-02-16T00:39:59.822Z,8.12
2019-02-16T00:40:59.832Z,8.06
2019-02-16T00:41:59.804Z,8.10
2019-02-16T00:42:59.794Z,8.06
2019-02-16T00:43:59.785Z,8.10
2019-02-16T00:44:59.770Z,7.99
2019-02-16T00:45:59.777Z,8.01
2019-02-16T00:46:59.753Z,7.99
2019-02-16T00:47:59.746Z,7.99
2019-02-16T00:48:59.726Z,8.01
2019-02-16T00:49:59.723Z,7.96
2019-02-16T00:50:59.729Z,7.98
2019-02-16T00:51:59.700Z,7.94
2019-02-16T00:52:59.683Z,7.96
2019-02-16T00:53:59.671Z,7.91
2019-02-16T00:54:59.669Z,7.96
2019-02-16T00:55:59.671Z,7.92
2019-02-16T00:56:59.665Z,7.92
2019-02-16T00:57:59.635Z,7.96
2019-02-16T00:58:59.626Z,7.94
2019-02-16T00:59:59.609Z,7.88
2019-02-16T01:00:59.619Z,7.96
2019-02-16T01:01:59.608Z,8.04
2019-02-16T01:02:59.575Z,7.94
2019-02-16T01:03:59.573Z,7.84
2019-02-16T01:04:59.556Z,7.84
2019-02-16T01:05:59.598Z,7.88
2019-02-16T01:06:59.554Z,7.92
2019-02-16T01:07:59.523Z,7.81
2019-02-16T01:08:59.518Z,7.84
2019-02-16T01:09:59.510Z,7.91
2019-02-16T01:10:59.504Z,7.81
2019-02-16T01:11:59.512Z,7.80
2019-02-16T01:12:59.483Z,7.77
2019-02-16T01:13:59.468Z,7.78
2019-02-16T01:14:59.448Z,7.78
2019-02-16T01:15:59.441Z,7.83
2019-02-16T01:16:59.454Z,7.91
2019-02-16T01:17:59.415Z,7.77
2019-02-16T01:18:59.414Z,7.83
2019-02-16T01:19:59.399Z,7.73
2019-02-16T01:20:59.382Z,7.77
2019-02-16T01:21:59.421Z,7.73
2019-02-16T01:22:59.363Z,7.77
2019-02-16T01:23:59.353Z,7.74
2019-02-16T01:24:59.341Z,7.78
2019-02-16T01:25:59.330Z,7.76
2019-02-16T01:26:59.325Z,7.73
2019-02-16T01:27:59.333Z,7.76
2019-02-16T01:28:59.302Z,7.71
2019-02-16T01:29:59.290Z,7.66
2019-02-16T01:30:59.284Z,7.74
2019-02-16T01:31:59.266Z,7.61
2019-02-16T01:32:59.273Z,7.66
2019-02-16T01:33:59.247Z,7.61
2019-02-16T01:34:59.235Z,7.62
2019-02-16T01:35:59.223Z,7.60
2019-02-16T01:36:59.219Z,7.60
2019-02-16T01:37:59.222Z,7.58
2019-02-16T01:38:59.194Z,7.60
2019-02-16T01:39:59.182Z,7.57
2019-02-16T01:40:59.185Z,7.46
2019-02-16T01:41:59.158Z,7.49
2019-02-16T01:42:59.181Z,7.46
2019-02-16T01:43:59.138Z,7.34
2019-02-16T01:44:59.127Z,7.47
2019-02-16T01:45:59.115Z,7.34
2019-02-16T01:46:59.104Z,7.39
2019-02-16T01:47:59.114Z,7.37
2019-02-16T01:48:59.094Z,7.34
2019-02-16T01:49:59.077Z,7.39
2019-02-16T01:50:59.066Z,7.46
2019-02-16T01:51:59.053Z,7.36
2019-02-16T01:52:59.058Z,7.36
2019-02-16T01:53:59.032Z,7.39
2019-02-16T01:54:59.027Z,7.43
2019-02-16T01:55:59.023Z,7.39
2019-02-16T01:56:59.007Z,7.39
2019-02-16T01:57:59.014Z,7.39
2019-02-16T01:58:58.978Z,7.49
2019-02-16T01:59:58.966Z,7.34
2019-02-16T02:00:58.956Z,7.44
2019-02-16T02:01:58.973Z,7.49
2019-02-16T02:02:58.972Z,7.46
2019-02-16T02:03:58.927Z,7.39
2019-02-16T02:04:58.911Z,7.40
2019-02-16T02:05:58.900Z,7.24
2019-02-16T02:06:58.889Z,7.28
2019-02-16T02:07:58.879Z,7.29
2019-02-16T02:08:58.900Z,7.26
2019-02-16T02:09:58.858Z,7.22
2019-02-16T02:10:58.848Z,7.21
2019-02-16T02:11:58.836Z,7.16
2019-02-16T02:12:58.824Z,7.11
2019-02-16T02:13:58.831Z,7.06
2019-02-16T02:14:58.805Z,6.99
2019-02-16T02:15:58.801Z,7.00
2019-02-16T02:16:58.780Z,6.88
2019-02-16T02:17:58.770Z,6.96
2019-02-16T02:18:58.780Z,6.85
2019-02-16T02:19:58.752Z,6.86
2019-02-16T02:20:58.740Z,6.91
2019-02-16T02:21:58.739Z,6.85
2019-02-16T02:22:58.718Z,6.85
2019-02-16T02:23:58.725Z,6.86
2019-02-16T02:24:58.700Z,6.82
2019-02-16T02:25:58.684Z,6.78
2019-02-16T02:26:58.673Z,6.74
2019-02-16T02:27:58.668Z,6.74
2019-02-16T02:28:58.679Z,6.75
2019-02-16T02:29:58.644Z,6.74
2019-02-16T02:30:58.635Z,6.79
2019-02-16T02:31:58.625Z,6.63
2019-02-16T02:32:58.610Z,6.68
2019-02-16T02:33:58.617Z,6.65
2019-02-16T02:34:58.592Z,6.61
2019-02-16T02:35:58.579Z,6.65
2019-02-16T02:36:58.571Z,6.70
2019-02-16T02:37:58.555Z,6.63
2019-02-16T02:38:58.564Z,6.64
2019-02-16T02:39:58.531Z,6.61
2019-02-16T02:40:58.528Z,6.67
2019-02-16T02:41:58.539Z,6.68
2019-02-16T02:42:58.513Z,6.61
2019-02-16T02:43:58.508Z,6.63
2019-02-16T02:44:58.480Z,6.60
2019-02-16T02:45:58.470Z,6.60
2019-02-16T02:46:58.456Z,6.64
2019-02-16T02:47:58.452Z,6.57
2019-02-16T02:48:58.461Z,6.60
2019-02-16T02:50:05.951Z,6.57
2019-02-16T02:51:05.948Z,6.55
2019-02-16T02:51:58.405Z,6.60
2019-02-16T02:53:05.930Z,6.56
2019-02-16T02:53:58.405Z,6.57
2019-02-16T02:54:58.372Z,6.63
2019-02-16T02:55:58.365Z,6.61
2019-02-16T02:56:58.352Z,6.65
2019-02-16T02:57:58.343Z,6.68
2019-02-16T02:58:58.327Z,6.65
2019-02-16T02:59:58.364Z,6.55
2019-02-16T03:00:59.299Z,6.53
2019-02-16T03:01:58.303Z,6.65
2019-02-16T03:02:58.285Z,6.64
2019-02-16T03:03:58.277Z,6.70
2019-02-16T03:04:58.283Z,6.73
2019-02-16T03:05:58.252Z,6.70
2019-02-16T03:06:58.249Z,6.68
2019-02-16T03:07:58.230Z,6.61
2019-02-16T03:08:58.222Z,6.63
2019-02-16T03:09:58.230Z,6.63
2019-02-16T03:10:58.199Z,6.68
2019-02-16T03:11:58.189Z,6.63
2019-02-16T03:12:58.185Z,6.64
2019-02-16T03:13:58.193Z,6.71
2019-02-16T03:14:58.178Z,6.60
2019-02-16T03:15:58.144Z,6.70
2019-02-16T03:16:58.134Z,6.65
2019-02-16T03:17:58.124Z,6.60
2019-02-16T03:18:58.112Z,6.70
2019-02-16T03:19:58.107Z,6.68
2019-02-16T03:20:58.108Z,6.64
2019-02-16T03:22:02.654Z,6.65
2019-02-16T03:22:59.069Z,6.64
2019-02-16T03:23:58.061Z,6.61
2019-02-16T03:24:58.105Z,6.55
2019-02-16T03:25:58.070Z,6.55
2019-02-16T03:26:58.029Z,6.56
2019-02-16T03:27:58.018Z,6.60
2019-02-16T03:28:58.009Z,6.53
2019-02-16T03:29:57.997Z,6.50
2019-02-16T03:30:58.011Z,6.52
2019-02-16T03:31:57.982Z,6.56
2019-02-16T03:32:57.965Z,6.53
2019-02-16T03:33:57.953Z,6.52
2019-02-16T03:34:57.941Z,6.53
2019-02-16T03:35:57.950Z,6.50
2019-02-16T03:36:57.918Z,6.45
2019-02-16T03:37:57.942Z,6.47
2019-02-16T03:38:58.796Z,6.45
2019-02-16T03:39:57.888Z,6.47
2019-02-16T03:40:57.902Z,6.47
2019-02-16T03:41:57.874Z,6.50
2019-02-16T03:42:57.858Z,6.52
2019-02-16T03:43:57.845Z,6.46
2019-02-16T03:44:57.838Z,6.46
2019-02-16T03:45:57.821Z,6.45
2019-02-16T03:46:57.828Z,6.49
2019-02-16T03:47:57.802Z,6.46
2019-02-16T03:48:57.791Z,6.42
2019-02-16T03:49:57.785Z,6.43
2019-02-16T03:50:57.769Z,6.50
2019-02-16T03:51:57.781Z,6.43
2019-02-16T03:52:57.745Z,6.45
2019-02-16T03:53:57.735Z,6.45
2019-02-16T03:54:57.723Z,6.46
2019-02-16T03:56:07.537Z,6.47
2019-02-16T03:57:06.416Z,6.43
2019-02-16T03:58:05.229Z,6.46
2019-02-16T03:59:06.227Z,6.46
2019-02-16T04:00:05.208Z,6.42
2019-02-16T04:01:05.200Z,6.45
2019-02-16T04:02:06.596Z,6.47
2019-02-16T04:03:06.187Z,6.43
2019-02-16T04:03:57.629Z,6.47
2019-02-16T04:05:05.155Z,6.46
2019-02-16T04:05:57.610Z,6.38
2019-02-16T04:06:57.597Z,6.49
2019-02-16T04:07:57.607Z,6.45
2019-02-16T04:08:57.575Z,6.47
2019-02-16T04:09:57.568Z,6.38
2019-02-16T04:10:57.555Z,6.38
2019-02-16T04:12:04.592Z,6.43
2019-02-16T04:12:57.534Z,6.42
2019-02-16T04:13:57.521Z,6.47
2019-02-16T04:15:05.057Z,6.38
2019-02-16T04:16:05.040Z,6.38
2019-02-16T04:17:07.161Z,6.40
2019-02-16T04:18:06.188Z,6.43
2019-02-16T04:19:05.012Z,6.37
2019-02-16T04:20:04.993Z,6.47
2019-02-16T04:21:04.984Z,6.45
2019-02-16T04:22:04.977Z,6.45
2019-02-16T04:23:06.340Z,6.45
2019-02-16T04:24:04.943Z,6.32
2019-02-16T04:25:04.942Z,6.35
2019-02-16T04:26:05.043Z,6.37
2019-02-16T04:26:57.386Z,6.35
2019-02-16T04:28:06.925Z,6.24
2019-02-16T04:29:04.902Z,6.27
2019-02-16T04:30:04.885Z,6.25
2019-02-16T04:31:04.874Z,6.31
2019-02-16T04:32:04.863Z,6.27
2019-02-16T04:33:06.056Z,6.25
2019-02-16T04:34:04.967Z,6.19
2019-02-16T04:34:57.296Z,6.24
2019-02-16T04:35:57.284Z,6.27
2019-02-16T04:36:57.274Z,6.27
2019-02-16T04:37:57.267Z,6.27
2019-02-16T04:38:57.276Z,6.24
2019-02-16T04:39:57.240Z,6.24
2019-02-16T04:40:57.234Z,6.28
2019-02-16T04:41:57.259Z,6.24
2019-02-16T04:42:57.213Z,6.31
2019-02-16T04:43:57.220Z,6.19
2019-02-16T04:44:57.192Z,6.21
2019-02-16T04:45:57.182Z,6.16
2019-02-16T04:46:57.167Z,6.15
2019-02-16T04:47:57.156Z,6.12
2019-02-16T04:48:57.165Z,6.08
2019-02-16T04:49:57.141Z,6.13
2019-02-16T04:50:57.125Z,6.00
2019-02-16T04:51:57.114Z,6.06
2019-02-16T04:52:57.101Z,6.06
2019-02-16T04:53:57.109Z,6.03
2019-02-16T04:54:57.085Z,6.11
2019-02-16T04:55:57.075Z,6.02
2019-02-16T04:56:57.060Z,6.06
2019-02-16T04:57:57.050Z,6.09
2019-02-16T04:58:57.067Z,6.09
2019-02-16T04:59:57.036Z,6.06
2019-02-16T05:00:57.020Z,6.00
2019-02-16T05:01:57.019Z,6.05
2019-02-16T05:02:56.996Z,6.05
2019-02-16T05:03:57.004Z,5.98
2019-02-16T05:04:56.979Z,6.08
2019-02-16T05:05:59.610Z,6.02
2019-02-16T05:06:56.966Z,6.09
2019-02-16T05:07:56.951Z,6.02
2019-02-16T05:08:56.952Z,6.02
2019-02-16T05:09:56.928Z,6.03
2019-02-16T05:10:56.913Z,6.03
2019-02-16T05:11:56.900Z,5.95
2019-02-16T05:12:56.890Z,5.91
2019-02-16T05:13:56.902Z,5.88
2019-02-16T05:14:56.867Z,5.97
2019-02-16T05:15:56.858Z,5.93
2019-02-16T05:16:56.850Z,5.94
2019-02-16T05:17:56.840Z,5.88
2019-02-16T05:19:05.606Z,5.80
2019-02-16T05:19:56.828Z,5.76
2019-02-16T05:20:56.812Z,5.85
2019-02-16T05:21:56.801Z,5.82
2019-02-16T05:22:56.782Z,5.75
2019-02-16T05:23:56.797Z,5.72
2019-02-16T05:24:56.763Z,5.61
2019-02-16T05:25:56.756Z,5.58
2019-02-16T05:26:56.741Z,5.59
2019-02-16T05:27:56.730Z,5.59
2019-02-16T05:28:56.752Z,5.61
2019-02-16T05:29:56.711Z,5.51
2019-02-16T05:30:56.697Z,5.65
2019-02-16T05:31:56.686Z,5.67
2019-02-16T05:32:56.675Z,5.58
2019-02-16T05:33:56.697Z,5.50
2019-02-16T05:34:56.657Z,5.58
2019-02-16T05:35:56.642Z,5.55
2019-02-16T05:36:56.634Z,5.55
2019-02-16T05:37:56.623Z,5.50
2019-02-16T05:38:56.621Z,5.50
2019-02-16T05:39:56.636Z,5.52
2019-02-16T05:40:56.596Z,5.55
2019-02-16T05:41:56.581Z,5.50
2019-02-16T05:42:56.569Z,5.55
2019-02-16T05:43:56.558Z,5.62
2019-02-16T05:44:56.565Z,5.59
2019-02-16T05:45:56.555Z,5.65
2019-02-16T05:46:56.527Z,5.65
2019-02-16T05:47:56.513Z,5.66
2019-02-16T05:48:56.511Z,5.66
2019-02-16T05:49:56.518Z,5.59
2019-02-16T05:50:56.484Z,5.61
2019-02-16T05:51:56.480Z,5.57
2019-02-16T05:52:56.463Z,5.61
2019-02-16T05:53:56.452Z,5.66
2019-02-16T05:54:56.461Z,5.57
2019-02-16T05:55:56.432Z,5.73
2019-02-16T05:56:56.490Z,5.72
2019-02-16T05:57:56.429Z,5.75
2019-02-16T05:58:56.403Z,5.69
2019-02-16T05:59:56.398Z,5.72
2019-02-16T06:00:56.429Z,5.72
2019-02-16T06:01:56.367Z,5.70
2019-02-16T06:02:56.363Z,5.69
2019-02-16T06:03:56.359Z,5.73
2019-02-16T06:04:56.356Z,5.61
2019-02-16T06:05:56.348Z,5.62
2019-02-16T06:06:56.323Z,5.69
2019-02-16T06:07:56.456Z,5.70
2019-02-16T06:08:56.297Z,5.72
2019-02-16T06:09:56.291Z,5.70
2019-02-16T06:10:59.388Z,5.70
2019-02-16T06:11:56.303Z,5.67
2019-02-16T06:12:56.249Z,5.70
2019-02-16T06:13:56.238Z,5.61
2019-02-16T06:14:56.231Z,5.59
2019-02-16T06:15:56.238Z,5.65
2019-02-16T06:16:56.214Z,5.66
2019-02-16T06:17:56.209Z,5.61
2019-02-16T06:18:56.200Z,5.65
2019-02-16T06:19:56.179Z,5.58
2019-02-16T06:20:56.210Z,5.59
2019-02-16T06:21:56.156Z,5.59
2019-02-16T06:23:03.863Z,5.55
2019-02-16T06:23:57.146Z,5.65
2019-02-16T06:24:56.174Z,5.61
2019-02-16T06:25:56.113Z,5.61
2019-02-16T06:26:56.128Z,5.65
2019-02-16T06:27:56.201Z,5.54
2019-02-16T06:28:56.079Z,5.62
2019-02-16T06:29:56.080Z,5.61
2019-02-16T06:30:56.059Z,5.61
2019-02-16T06:31:56.066Z,5.57
2019-02-16T06:32:56.034Z,5.62
2019-02-16T06:33:56.023Z,5.57
2019-02-16T06:34:56.014Z,5.59
2019-02-16T06:35:56.010Z,5.58
2019-02-16T06:36:56.023Z,5.65
2019-02-16T06:37:55.990Z,5.58
2019-02-16T06:38:55.973Z,5.50
2019-02-16T06:39:55.960Z,5.55
2019-02-16T06:40:55.952Z,5.58
2019-02-16T06:41:56.013Z,5.51
2019-02-16T06:42:55.940Z,5.62
2019-02-16T06:43:55.931Z,5.48
2019-02-16T06:44:55.911Z,5.61
2019-02-16T06:45:56.590Z,5.48
2019-02-16T06:46:55.910Z,5.50
2019-02-16T06:47:55.877Z,5.57
2019-02-16T06:49:03.404Z,5.48
2019-02-16T06:50:03.390Z,5.52
2019-02-16T06:50:55.847Z,5.50
2019-02-16T06:51:55.832Z,5.43
2019-02-16T06:52:56.759Z,5.48
2019-02-16T06:53:55.810Z,5.43
2019-02-16T06:54:55.804Z,5.48
2019-02-16T06:55:55.787Z,5.51
2019-02-16T06:56:55.777Z,5.57
2019-02-16T06:57:55.790Z,5.51
2019-02-16T06:58:55.761Z,5.55
2019-02-16T06:59:55.769Z,5.50
2019-02-16T07:00:55.783Z,5.54
2019-02-16T07:01:55.730Z,5.51
2019-02-16T07:02:55.741Z,5.48
2019-02-16T07:03:55.709Z,5.57
2019-02-16T07:04:55.698Z,5.50
2019-02-16T07:05:55.683Z,5.55
2019-02-16T07:06:55.670Z,5.57
2019-02-16T07:07:55.686Z,5.51
2019-02-16T07:08:55.654Z,5.43
2019-02-16T07:09:55.688Z,5.54
2019-02-16T07:10:55.630Z,5.59
2019-02-16T07:11:55.623Z,5.58
2019-02-16T07:12:55.628Z,5.62
2019-02-16T07:13:55.631Z,5.50
2019-02-16T07:14:55.585Z,5.62
2019-02-16T07:15:55.577Z,5.61
2019-02-16T07:16:55.567Z,5.62
2019-02-16T07:17:55.573Z,5.62
2019-02-16T07:18:55.544Z,5.61
2019-02-16T07:19:55.556Z,5.59
2019-02-16T07:20:55.521Z,5.66
2019-02-16T07:21:55.518Z,5.62
2019-02-16T07:22:55.527Z,5.59
2019-02-16T07:23:55.493Z,5.66
2019-02-16T07:24:55.477Z,5.69
2019-02-16T07:25:55.506Z,5.65
2019-02-16T07:26:55.458Z,5.75
2019-02-16T07:27:55.475Z,5.69
2019-02-16T07:28:55.436Z,5.82
2019-02-16T07:29:55.427Z,5.84
2019-02-16T07:30:55.424Z,5.88
2019-02-16T07:31:55.442Z,5.85
2019-02-16T07:32:55.404Z,5.88
2019-02-16T07:33:55.407Z,5.90
2019-02-16T07:34:55.375Z,5.95
2019-02-16T07:35:55.403Z,5.94
2019-02-16T07:36:55.371Z,5.98
2019-02-16T07:37:55.339Z,5.93
2019-02-16T07:38:55.352Z,5.91
2019-02-16T07:39:55.342Z,6.06
2019-02-16T07:40:55.311Z,6.02
2019-02-16T07:41:57.243Z,6.00
2019-02-16T07:42:55.290Z,6.09
2019-02-16T07:43:55.294Z,6.05
2019-02-16T07:44:56.094Z,6.06
2019-02-16T07:45:55.274Z,6.09
2019-02-16T07:46:55.244Z,6.08
2019-02-16T07:47:55.240Z,6.08
2019-02-16T07:48:55.267Z,6.16
2019-02-16T07:49:55.214Z,6.05
2019-02-16T07:50:55.212Z,6.11
2019-02-16T07:51:55.197Z,6.12
2019-02-16T07:52:55.189Z,6.15
2019-02-16T07:53:55.192Z,6.16
2019-02-16T07:54:55.157Z,6.15
2019-02-16T07:55:55.146Z,6.16
2019-02-16T07:56:55.152Z,6.19
2019-02-16T07:57:55.128Z,6.25
2019-02-16T07:58:55.116Z,6.25
2019-02-16T07:59:55.128Z,6.19
2019-02-16T08:00:55.099Z,6.25
2019-02-16T08:01:56.745Z,6.27
2019-02-16T08:02:55.078Z,6.25
2019-02-16T08:03:55.076Z,6.28
2019-02-16T08:04:55.074Z,6.31
2019-02-16T08:05:55.046Z,6.37
2019-02-16T08:06:55.037Z,6.31
2019-02-16T08:07:55.021Z,6.42
2019-02-16T08:08:55.024Z,6.42
2019-02-16T08:09:55.027Z,6.43
2019-02-16T08:10:54.992Z,6.46
2019-02-16T08:11:54.976Z,6.45
2019-02-16T08:12:54.978Z,6.53
2019-02-16T08:13:54.954Z,6.50
2019-02-16T08:14:54.971Z,6.60
2019-02-16T08:15:54.936Z,6.50
2019-02-16T08:16:54.926Z,6.57
2019-02-16T08:17:54.918Z,6.53
2019-02-16T08:18:54.909Z,6.64
2019-02-16T08:19:54.912Z,6.60
2019-02-16T08:20:54.887Z,6.70
2019-02-16T08:21:54.902Z,6.68
2019-02-16T08:22:54.868Z,6.81
2019-02-16T08:23:54.849Z,6.79
2019-02-16T08:24:54.869Z,6.67
2019-02-16T08:25:54.830Z,6.85
2019-02-16T08:26:54.818Z,6.81
2019-02-16T08:27:54.832Z,6.83
2019-02-16T08:28:54.816Z,6.88
2019-02-16T08:29:54.789Z,6.96
2019-02-16T08:30:54.799Z,6.99
2019-02-16T08:31:54.764Z,7.04
2019-02-16T08:32:54.801Z,7.10
2019-02-16T08:33:54.753Z,7.18
2019-02-16T08:34:54.729Z,7.22
2019-02-16T08:35:54.738Z,7.25
2019-02-16T08:36:54.709Z,7.26
2019-02-16T08:37:54.700Z,7.24
2019-02-16T08:38:54.689Z,7.37
2019-02-16T08:39:54.694Z,7.29
2019-02-16T08:40:54.686Z,7.28
2019-02-16T08:41:54.662Z,7.31
2019-02-16T08:42:54.644Z,7.31
2019-02-16T08:43:54.637Z,7.39
2019-02-16T08:44:54.624Z,7.40
2019-02-16T08:45:54.654Z,7.49
2019-02-16T08:46:54.600Z,7.47
2019-02-16T08:47:54.590Z,7.58
2019-02-16T08:48:54.582Z,7.57
2019-02-16T08:49:54.569Z,7.60
2019-02-16T08:51:04.159Z,7.64
2019-02-16T08:52:02.085Z,7.64
2019-02-16T08:53:02.077Z,7.71
2019-02-16T08:54:02.077Z,7.74
2019-02-16T08:55:02.070Z,7.71
2019-02-16T08:56:03.838Z,7.80
2019-02-16T08:57:03.067Z,7.84
2019-02-16T08:58:02.026Z,7.81
2019-02-16T08:59:02.024Z,7.83
2019-02-16T09:00:02.008Z,7.88
2019-02-16T09:01:03.403Z,7.86
2019-02-16T09:02:01.988Z,7.86
2019-02-16T09:03:02.394Z,7.87
2019-02-16T09:04:02.036Z,7.98
2019-02-16T09:05:01.959Z,8.01
2019-02-16T09:06:03.024Z,8.09
2019-02-16T09:06:54.393Z,8.06
2019-02-16T09:08:02.955Z,8.13
2019-02-16T09:08:54.374Z,8.12
2019-02-16T09:10:02.917Z,8.16
2019-02-16T09:11:04.127Z,8.21
2019-02-16T09:12:02.907Z,8.20
2019-02-16T09:13:01.921Z,8.24
2019-02-16T09:14:02.879Z,8.53
2019-02-16T09:14:54.406Z,8.80
2019-02-16T09:16:04.199Z,9.03
2019-02-16T09:17:02.845Z,8.90
2019-02-16T09:18:01.818Z,9.12
2019-02-16T09:19:01.831Z,9.12
2019-02-16T09:20:01.786Z,9.03
2019-02-16T09:21:03.319Z,8.85
2019-02-16T09:21:54.224Z,8.74
2019-02-16T09:23:01.766Z,8.75
2019-02-16T09:24:01.761Z,8.67
2019-02-16T09:25:02.770Z,8.63
2019-02-16T09:26:03.922Z,8.70
2019-02-16T09:27:01.722Z,8.62
2019-02-16T09:28:01.717Z,8.65
2019-02-16T09:28:54.162Z,8.83
2019-02-16T09:29:54.141Z,8.86
2019-02-16T09:30:54.133Z,8.83
2019-02-16T09:31:54.154Z,8.93
2019-02-16T09:32:54.115Z,8.81
2019-02-16T09:33:54.097Z,8.88
2019-02-16T09:34:54.087Z,8.89
2019-02-16T09:35:54.079Z,9.01
2019-02-16T09:36:54.087Z,8.98
2019-02-16T09:37:54.062Z,8.93
2019-02-16T09:38:54.070Z,8.93
2019-02-16T09:39:54.041Z,9.01
2019-02-16T09:40:54.039Z,9.09
2019-02-16T09:41:54.047Z,9.14
2019-02-16T09:42:54.005Z,9.11
2019-02-16T09:43:53.993Z,9.11
2019-02-16T09:44:54.028Z,9.16
2019-02-16T09:45:54.002Z,9.24
2019-02-16T09:46:53.977Z,9.24
2019-02-16T09:47:53.950Z,9.32
2019-02-16T09:48:53.936Z,9.27
2019-02-16T09:49:53.930Z,9.29
2019-02-16T09:50:53.944Z,9.32
2019-02-16T09:51:53.970Z,9.32
2019-02-16T09:52:53.894Z,9.40
2019-02-16T09:53:53.881Z,9.34
2019-02-16T09:54:53.893Z,9.45
2019-02-16T09:55:53.862Z,9.50
2019-02-16T09:56:53.864Z,9.59
2019-02-16T09:57:53.881Z,9.60
2019-02-16T09:58:53.834Z,9.54
2019-02-16T09:59:53.816Z,9.66
2019-02-16T10:00:53.812Z,9.69
2019-02-16T10:01:53.803Z,9.69
2019-02-16T10:02:53.854Z,9.75
2019-02-16T10:03:53.780Z,9.87
2019-02-16T10:04:53.769Z,9.80
2019-02-16T10:05:53.751Z,9.93
2019-02-16T10:06:53.833Z,9.85
2019-02-16T10:07:53.757Z,9.91
2019-02-16T10:08:53.721Z,9.93
2019-02-16T10:09:53.832Z,9.88
2019-02-16T10:10:53.726Z,9.93
2019-02-16T10:11:53.688Z,9.91
2019-02-16T10:12:53.756Z,10.05
2019-02-16T10:13:53.664Z,10.09
2019-02-16T10:14:53.655Z,10.03
2019-02-16T10:15:53.665Z,10.05
2019-02-16T10:16:53.630Z,10.18
2019-02-16T10:17:53.685Z,10.23
2019-02-16T10:18:53.627Z,10.24
2019-02-16T10:19:53.604Z,10.31
2019-02-16T10:20:53.592Z,10.34
2019-02-16T10:21:53.582Z,10.31
2019-02-16T10:22:53.676Z,10.39
2019-02-16T10:23:53.560Z,10.46
2019-02-16T10:24:53.555Z,10.49
2019-02-16T10:25:54.954Z,10.61
2019-02-16T10:26:53.524Z,10.60
2019-02-16T10:27:53.534Z,10.65
2019-02-16T10:28:53.632Z,10.61
2019-02-16T10:29:53.518Z,10.76
2019-02-16T10:30:53.481Z,10.75
2019-02-16T10:31:53.472Z,10.80
2019-02-16T10:32:53.486Z,10.85
2019-02-16T10:33:53.447Z,10.87
2019-02-16T10:34:53.448Z,11.00
2019-02-16T10:35:53.468Z,11.01
2019-02-16T10:36:53.418Z,11.03
2019-02-16T10:37:53.444Z,11.12
2019-02-16T10:38:53.473Z,11.03
2019-02-16T10:39:53.402Z,10.98
2019-02-16T10:40:53.374Z,11.01
2019-02-16T10:41:53.368Z,11.08
2019-02-16T10:42:53.350Z,11.13
2019-02-16T10:43:53.359Z,11.11
2019-02-16T10:44:53.465Z,11.13
2019-02-16T10:45:53.505Z,11.08
2019-02-16T10:46:53.398Z,11.08
2019-02-16T10:47:53.328Z,11.11
2019-02-16T10:48:53.315Z,11.18
2019-02-16T10:49:53.274Z,11.18
2019-02-16T10:50:53.269Z,11.18
2019-02-16T10:51:53.253Z,11.19
2019-02-16T10:52:53.251Z,11.16
2019-02-16T10:53:53.249Z,11.25
2019-02-16T10:54:53.220Z,11.25
2019-02-16T10:55:53.291Z,11.28
2019-02-16T10:56:53.199Z,11.23
2019-02-16T10:57:53.188Z,11.36
2019-02-16T10:58:53.233Z,11.31
2019-02-16T10:59:53.179Z,11.28
2019-02-16T11:00:53.169Z,11.48
2019-02-16T11:01:53.150Z,11.45
2019-02-16T11:02:53.137Z,11.37
2019-02-16T11:03:53.155Z,11.43
2019-02-16T11:04:53.113Z,11.45
2019-02-16T11:05:53.101Z,11.45
2019-02-16T11:06:53.095Z,11.55
2019-02-16T11:07:53.085Z,11.56
2019-02-16T11:08:53.095Z,11.58
2019-02-16T11:09:53.091Z,11.61
2019-02-16T11:10:53.049Z,11.59
2019-02-16T11:11:53.039Z,11.69
2019-02-16T11:12:53.029Z,11.59
2019-02-16T11:13:53.016Z,11.62
2019-02-16T11:14:53.021Z,11.62
2019-02-16T11:15:52.996Z,11.62
2019-02-16T11:16:53.657Z,11.67
2019-02-16T11:17:52.974Z,11.70
2019-02-16T11:18:53.017Z,11.73
2019-02-16T11:19:53.046Z,11.76
2019-02-16T11:20:52.955Z,11.79
2019-02-16T11:21:52.927Z,11.77
2019-02-16T11:22:52.918Z,11.80
2019-02-16T11:23:52.908Z,11.93
2019-02-16T11:24:52.968Z,11.99
2019-02-16T11:25:52.885Z,11.97
2019-02-16T11:26:52.878Z,12.05
2019-02-16T11:27:52.868Z,12.10
2019-02-16T11:28:52.853Z,12.15
2019-02-16T11:29:52.858Z,12.17
2019-02-16T11:30:52.833Z,12.17
2019-02-16T11:31:52.837Z,12.29
2019-02-16T11:32:52.879Z,12.26
2019-02-16T11:33:52.798Z,12.17
2019-02-16T11:34:52.806Z,12.21
2019-02-16T11:35:52.843Z,12.23
2019-02-16T11:36:52.762Z,12.11
2019-02-16T11:37:52.755Z,12.15
2019-02-16T11:38:52.741Z,12.22
2019-02-16T11:39:52.806Z,12.28
2019-02-16T11:40:52.722Z,12.23
2019-02-16T11:41:52.716Z,12.26
2019-02-16T11:42:52.697Z,12.22
2019-02-16T11:43:52.719Z,12.28
2019-02-16T11:44:52.699Z,12.33
2019-02-16T11:45:52.669Z,12.29
2019-02-16T11:46:52.656Z,12.29
2019-02-16T11:47:52.646Z,12.38
2019-02-16T11:48:52.635Z,12.40
2019-02-16T11:49:52.631Z,12.40
2019-02-16T11:50:52.644Z,12.38
2019-02-16T11:51:52.605Z,12.43
2019-02-16T11:52:52.590Z,12.38
2019-02-16T11:53:52.579Z,12.38
2019-02-16T11:54:52.567Z,12.38
2019-02-16T11:55:52.578Z,12.40
2019-02-16T11:56:52.551Z,12.33
2019-02-16T11:57:52.534Z,12.35
2019-02-16T11:58:52.526Z,12.41
2019-02-16T11:59:53.441Z,12.51
2019-02-16T12:00:52.523Z,12.50
2019-02-16T12:01:52.494Z,12.53
2019-02-16T12:02:52.521Z,12.58
2019-02-16T12:03:52.469Z,12.66
2019-02-16T12:04:52.459Z,12.55
2019-02-16T12:05:52.470Z,12.69
2019-02-16T12:06:52.438Z,12.72
2019-02-16T12:07:54.499Z,12.76
2019-02-16T12:08:52.423Z,12.68
2019-02-16T12:09:52.404Z,12.73
2019-02-16T12:10:52.468Z,12.77
2019-02-16T12:11:52.382Z,12.71
2019-02-16T12:12:52.398Z,12.72
2019-02-16T12:13:52.360Z,12.68
2019-02-16T12:14:52.368Z,12.77
2019-02-16T12:15:52.372Z,12.91
2019-02-16T12:16:52.365Z,13.08
2019-02-16T12:17:52.321Z,13.16
2019-02-16T12:18:52.309Z,13.13
2019-02-16T12:19:52.292Z,13.29
2019-02-16T12:20:52.306Z,13.42
2019-02-16T12:21:52.290Z,13.47
2019-02-16T12:22:52.334Z,13.60
2019-02-16T12:23:52.253Z,13.60
2019-02-16T12:25:04.788Z,13.61
2019-02-16T12:25:53.249Z,13.64
2019-02-16T12:26:52.220Z,13.51
2019-02-16T12:27:52.207Z,13.60
2019-02-16T12:28:52.200Z,13.67
2019-02-16T12:29:52.217Z,13.64
2019-02-16T12:30:52.187Z,13.72
2019-02-16T12:31:52.186Z,13.86
2019-02-16T12:32:52.157Z,13.86
2019-02-16T12:33:52.147Z,14.00
2019-02-16T12:34:52.164Z,14.13
2019-02-16T12:35:52.125Z,14.26
2019-02-16T12:36:52.133Z,14.28
2019-02-16T12:37:52.102Z,14.26
2019-02-16T12:38:52.112Z,14.28
2019-02-16T12:39:52.087Z,14.27
2019-02-16T12:40:52.106Z,14.34
2019-02-16T12:41:52.078Z,14.38
2019-02-16T12:42:52.061Z,14.33
2019-02-16T12:43:52.151Z,14.28
2019-02-16T12:44:52.048Z,14.22
2019-02-16T12:45:52.026Z,14.28
2019-02-16T12:46:52.065Z,14.23
2019-02-16T12:47:52.026Z,14.37
2019-02-16T12:48:51.993Z,14.31
2019-02-16T12:49:51.980Z,14.28
2019-02-16T12:50:51.972Z,14.26
2019-02-16T12:51:51.963Z,14.26
2019-02-16T12:52:51.966Z,14.23
2019-02-16T12:53:51.940Z,14.15
2019-02-16T12:54:51.930Z,14.09
2019-02-16T12:55:51.919Z,14.01
2019-02-16T12:56:51.905Z,13.98
2019-02-16T12:57:51.910Z,14.01
2019-02-16T12:58:51.907Z,14.01
2019-02-16T12:59:51.870Z,14.15
2019-02-16T13:00:51.864Z,13.98
2019-02-16T13:01:51.853Z,14.11
2019-02-16T13:02:51.856Z,14.27
2019-02-16T13:03:51.827Z,14.23
2019-02-16T13:04:51.862Z,14.28
2019-02-16T13:05:51.808Z,14.22
2019-02-16T13:06:51.795Z,14.26
2019-02-16T13:07:51.814Z,14.22
2019-02-16T13:08:51.778Z,14.28
2019-02-16T13:09:51.777Z,14.16
2019-02-16T13:10:51.767Z,14.18
2019-02-16T13:11:51.765Z,14.18